Time;durP1;ratioP1;P1;durP2;ratioP2;P2;SDS_P1;SDS_P2;PMS_P1;PMS_P2;Temp;Humidity;BMP_temperature;BMP_pressure;BME280_temperature;BME280_humidity;BME280_pressure;Samples;Min_cycle;Max_cycle;Signal;HPM_P1;HPM_P2
2021/11/07 00:04:25;;;;;;;;;;;9.20;96.00;;;;;;5089800;28;19913;-75
2021/11/07 00:07:07;;;;;;;;;;;9.20;96.00;;;;;;5088086;28;19907;-75
2021/11/07 00:09:49;;;;;;;;;;;9.10;96.00;;;;;;5087985;28;19912;-76
2021/11/07 00:12:30;;;;;;;;;;;9.10;96.00;;;;;;5073013;28;19916;-76
2021/11/07 00:14:56;;;;;;;;;;;9.10;96.00;;;;;;5089581;28;20026;-76
2021/11/07 00:17:25;;;;;;;;;;;9.00;96.00;;;;;;5089321;28;19995;-76
2021/11/07 00:20:06;;;;;;;;;;;9.00;96.00;;;;;;5089251;28;19923;-76
2021/11/07 00:25:20;;;;;;;;;;;8.90;96.10;;;;;;5088212;28;19913;-77
2021/11/07 00:27:52;;;;;;;;;;;8.90;96.10;;;;;;5089311;28;20072;-78
2021/11/07 00:37:40;;;;;;;;;;;8.80;96.30;;;;;;5089137;28;19912;-76
2021/11/07 00:43:04;;;;;;;;;;;8.70;96.30;;;;;;5088943;28;20050;-76
2021/11/07 00:48:44;;;;;;;;;;;8.70;96.30;;;;;;5086299;28;19907;-75
2021/11/07 00:51:28;;;;;;;;;;;8.70;96.40;;;;;;5084946;28;19916;-76
2021/11/07 01:01:24;;;;;;;;;;;8.70;96.40;;;;;;5088418;28;20355;-75
2021/11/07 01:03:50;;;;;;;;;;;8.70;96.40;;;;;;5088651;28;19965;-75
2021/11/07 01:06:16;;;;;;;;;;;8.70;96.40;;;;;;5088708;28;19908;-76
2021/11/07 01:08:42;;;;;;;;;;;8.70;96.50;;;;;;5087202;28;19919;-75
2021/11/07 01:11:07;;;;;;;;;;;8.70;96.50;;;;;;5088509;28;19908;-75
2021/11/07 01:13:33;;;;;;;;;;;8.60;96.50;;;;;;5087058;28;19912;-76
2021/11/07 01:15:59;;;;;;;;;;;8.60;96.50;;;;;;5088476;28;19908;-76
2021/11/07 01:18:24;;;;;;;;;;;8.60;96.50;;;;;;5088226;28;19999;-76
2021/11/07 01:20:50;;;;;;;;;;;8.60;96.60;;;;;;5087191;28;20411;-77
2021/11/07 01:23:22;;;;;;;;;;;8.70;96.70;;;;;;5087209;28;20411;-75
2021/11/07 01:25:53;;;;;;;;;;;8.70;96.60;;;;;;5086203;28;19912;-76
2021/11/07 01:28:20;;;;;;;;;;;8.80;96.60;;;;;;5088386;28;20014;-78
2021/11/07 01:30:52;;;;;;;;;;;8.80;96.50;;;;;;5088254;28;19943;-78
2021/11/07 01:33:24;;;;;;;;;;;8.80;96.50;;;;;;5088339;28;20341;-75
2021/11/07 01:36:09;;;;;;;;;;;8.80;96.40;;;;;;5088162;28;19912;-76
2021/11/07 01:39:23;;;;;;;;;;;8.70;96.40;;;;;;5088307;28;20381;-75
2021/11/07 01:41:26;;;;;;;;;;;8.70;96.40;;;;;;5087345;28;19912;-76
2021/11/07 01:43:54;;;;;;;;;;;8.70;96.40;;;;;;5086915;28;19915;-76
2021/11/07 01:49:01;;;;;;;;;;;8.50;96.50;;;;;;5087841;28;19920;-78
2021/11/07 01:51:27;;;;;;;;;;;8.50;96.50;;;;;;5086725;28;19908;-75
2021/11/07 01:53:59;;;;;;;;;;;8.50;96.60;;;;;;5086624;28;19923;-75
2021/11/07 01:56:25;;;;;;;;;;;8.40;96.60;;;;;;5087984;28;19916;-76
2021/11/07 01:58:50;;;;;;;;;;;8.40;96.60;;;;;;5086715;28;20110;-76
2021/11/07 02:01:23;;;;;;;;;;;8.40;96.70;;;;;;5086597;28;19912;-75
2021/11/07 02:03:49;;;;;;;;;;;8.30;96.60;;;;;;5088246;28;19939;-76
2021/11/07 02:06:14;;;;;;;;;;;8.30;96.60;;;;;;5087894;28;19916;-75
2021/11/07 02:08:40;;;;;;;;;;;8.20;96.60;;;;;;5087877;28;19912;-74
2021/11/07 02:11:05;;;;;;;;;;;8.20;96.60;;;;;;5086711;28;20007;-75
2021/11/07 02:13:32;;;;;;;;;;;8.20;96.60;;;;;;5087814;28;19929;-77
2021/11/07 02:15:57;;;;;;;;;;;8.20;96.70;;;;;;5088170;28;19915;-74
2021/11/07 02:18:24;;;;;;;;;;;8.10;96.70;;;;;;5087832;28;19920;-76
2021/11/07 02:20:50;;;;;;;;;;;8.10;96.70;;;;;;5087939;28;19908;-74
2021/11/07 02:23:17;;;;;;;;;;;8.10;96.80;;;;;;5086543;28;20393;-76
2021/11/07 02:25:43;;;;;;;;;;;8.10;96.80;;;;;;5087648;28;20309;-75
2021/11/07 02:28:10;;;;;;;;;;;8.10;96.90;;;;;;5085753;28;19918;-75
2021/11/07 02:30:36;;;;;;;;;;;8.10;96.90;;;;;;5086327;28;19916;-76
2021/11/07 02:33:02;;;;;;;;;;;8.10;96.90;;;;;;5087689;28;20298;-75
2021/11/07 02:35:30;;;;;;;;;;;8.20;96.90;;;;;;5087852;28;19908;-76
2021/11/07 02:37:56;;;;;;;;;;;8.10;96.90;;;;;;5091235;28;19931;-76
2021/11/07 02:40:22;;;;;;;;;;;8.10;96.90;;;;;;5090037;28;19989;-76
2021/11/07 02:42:48;;;;;;;;;;;8.10;96.90;;;;;;5090113;28;19990;-75
2021/11/07 02:45:15;;;;;;;;;;;8.10;96.90;;;;;;5091316;28;20011;-75
2021/11/07 02:47:41;;;;;;;;;;;8.10;96.90;;;;;;5091141;28;19908;-78
2021/11/07 02:50:07;;;;;;;;;;;8.10;96.90;;;;;;5089992;28;19969;-75
2021/11/07 02:52:33;;;;;;;;;;;8.10;96.90;;;;;;5091265;28;19912;-75
2021/11/07 02:54:59;;;;;;;;;;;8.00;96.90;;;;;;5091103;28;20359;-74
2021/11/07 02:57:25;;;;;;;;;;;8.00;96.90;;;;;;5091044;28;20002;-76
2021/11/07 03:00:03;;;;;;;;;;;8.00;96.90;;;;;;5091319;28;19912;-78
2021/11/07 03:02:30;;;;;;;;;;;8.00;96.90;;;;;;5089546;28;19955;-76
2021/11/07 03:04:55;;;;;;;;;;;8.00;96.90;;;;;;5072545;28;19916;-74
2021/11/07 03:07:21;;;;;;;;;;;8.00;96.90;;;;;;5089591;28;19924;-76
2021/11/07 03:09:47;;;;;;;;;;;7.90;96.90;;;;;;5090757;28;19912;-76
2021/11/07 03:12:13;;;;;;;;;;;7.90;97.00;;;;;;5090835;28;20002;-76
2021/11/07 03:14:45;;;;;;;;;;;7.90;97.00;;;;;;5089240;28;19912;-77
2021/11/07 03:17:12;;;;;;;;;;;7.90;97.00;;;;;;5090741;28;19968;-76
2021/11/07 03:19:38;;;;;;;;;;;7.90;97.00;;;;;;5089053;28;19924;-75
2021/11/07 03:22:06;;;;;;;;;;;7.90;97.00;;;;;;5090234;28;19909;-75
2021/11/07 03:24:31;;;;;;;;;;;7.90;97.00;;;;;;5090344;28;19926;-78
2021/11/07 03:26:58;;;;;;;;;;;7.90;97.00;;;;;;5090433;28;19931;-77
2021/11/07 03:29:32;;;;;;;;;;;7.90;97.00;;;;;;5090427;28;19944;-76
2021/11/07 03:34:32;;;;;;;;;;;7.90;97.00;;;;;;5090608;28;19938;-77
2021/11/07 03:36:59;;;;;;;;;;;8.00;97.00;;;;;;5090411;28;19951;-76
2021/11/07 03:39:28;;;;;;;;;;;8.00;97.00;;;;;;5088866;28;19976;-76
2021/11/07 03:41:53;;;;;;;;;;;8.00;97.00;;;;;;5089936;28;19991;-76
2021/11/07 03:44:21;;;;;;;;;;;8.00;97.00;;;;;;5090085;28;20422;-76
2021/11/07 03:46:48;;;;;;;;;;;8.00;97.00;;;;;;5088439;28;19940;-77
2021/11/07 03:49:14;;;;;;;;;;;8.00;97.00;;;;;;5088978;28;20003;-77
2021/11/07 03:51:40;;;;;;;;;;;8.00;97.00;;;;;;5089813;28;19908;-76
2021/11/07 03:54:07;;;;;;;;;;;8.00;97.00;;;;;;5090193;28;19951;-76
2021/11/07 03:56:33;;;;;;;;;;;7.90;96.90;;;;;;5089894;28;19915;-74
2021/11/07 03:58:58;;;;;;;;;;;7.90;96.90;;;;;;5089882;28;20015;-74
2021/11/07 04:01:24;;;;;;;;;;;7.90;96.90;;;;;;5088165;28;19966;-78
2021/11/07 04:03:50;;;;;;;;;;;7.90;96.90;;;;;;5088270;28;19912;-77
2021/11/07 04:06:16;;;;;;;;;;;7.90;96.90;;;;;;5089641;28;19909;-74
2021/11/07 04:08:42;;;;;;;;;;;7.90;96.90;;;;;;5089641;28;19912;-77
2021/11/07 04:11:08;;;;;;;;;;;7.90;97.00;;;;;;5089560;28;19931;-76
2021/11/07 04:13:37;;;;;;;;;;;7.90;97.00;;;;;;5089487;28;20381;-77
2021/11/07 04:16:03;;;;;;;;;;;7.90;97.00;;;;;;5088588;28;19968;-77
2021/11/07 04:18:29;;;;;;;;;;;7.90;97.00;;;;;;5089339;28;20273;-77
2021/11/07 04:20:54;;;;;;;;;;;7.80;97.00;;;;;;5089283;28;19919;-77
2021/11/07 04:23:20;;;;;;;;;;;7.80;97.00;;;;;;5088156;28;19954;-75
2021/11/07 04:25:45;;;;;;;;;;;7.80;96.90;;;;;;5087938;28;19924;-75
2021/11/07 04:28:11;;;;;;;;;;;7.80;97.00;;;;;;5088994;28;20252;-76
2021/11/07 04:30:37;;;;;;;;;;;7.80;97.00;;;;;;5089238;28;19958;-75
2021/11/07 04:33:02;;;;;;;;;;;7.80;97.00;;;;;;5087844;28;19998;-77
2021/11/07 04:35:28;;;;;;;;;;;7.80;97.00;;;;;;5089183;28;19955;-77
2021/11/07 04:37:55;;;;;;;;;;;7.70;97.00;;;;;;5089043;28;19927;-75
2021/11/07 04:40:20;;;;;;;;;;;7.70;97.00;;;;;;5070941;28;19919;-76
2021/11/07 04:42:47;;;;;;;;;;;7.70;97.00;;;;;;5087663;28;19915;-76
2021/11/07 04:45:13;;;;;;;;;;;7.70;97.00;;;;;;5087766;28;20064;-76
2021/11/07 04:47:39;;;;;;;;;;;7.70;97.00;;;;;;5088927;28;19915;-77
2021/11/07 04:50:07;;;;;;;;;;;7.70;97.00;;;;;;5088830;28;20014;-78
2021/11/07 04:52:32;;;;;;;;;;;7.70;97.00;;;;;;5088725;28;19918;-75
2021/11/07 04:54:58;;;;;;;;;;;7.70;97.00;;;;;;5087537;28;20010;-75
2021/11/07 04:57:23;;;;;;;;;;;7.70;97.00;;;;;;5088624;28;19922;-76
2021/11/07 04:59:49;;;;;;;;;;;7.70;97.00;;;;;;5087110;28;20011;-75
2021/11/07 05:02:15;;;;;;;;;;;7.70;97.00;;;;;;5088652;28;19913;-75
2021/11/07 05:04:41;;;;;;;;;;;7.70;97.00;;;;;;5088771;28;19908;-78
2021/11/07 05:07:07;;;;;;;;;;;7.60;97.00;;;;;;5088549;28;20358;-76
2021/11/07 05:09:32;;;;;;;;;;;7.70;97.00;;;;;;5088592;28;19912;-75
2021/11/07 05:11:58;;;;;;;;;;;7.60;97.00;;;;;;5087320;28;20358;-76
2021/11/07 05:14:23;;;;;;;;;;;7.60;97.00;;;;;;5088692;28;20275;-78
2021/11/07 05:16:49;;;;;;;;;;;7.60;97.00;;;;;;5087370;28;19959;-75
2021/11/07 05:19:15;;;;;;;;;;;7.60;97.00;;;;;;5087199;28;19919;-75
2021/11/07 05:21:40;;;;;;;;;;;7.60;97.00;;;;;;5088470;28;20170;-75
2021/11/07 05:24:06;;;;;;;;;;;7.60;97.00;;;;;;5087309;28;19916;-76
2021/11/07 05:26:33;;;;;;;;;;;7.60;97.10;;;;;;5088437;28;19915;-76
2021/11/07 05:28:58;;;;;;;;;;;7.60;97.10;;;;;;5088453;28;19969;-76
2021/11/07 05:31:24;;;;;;;;;;;7.60;97.00;;;;;;5088391;28;19912;-77
2021/11/07 05:33:51;;;;;;;;;;;7.50;97.00;;;;;;5088343;28;19919;-76
2021/11/07 05:36:17;;;;;;;;;;;7.50;97.00;;;;;;5088451;28;19909;-75
2021/11/07 05:38:42;;;;;;;;;;;7.50;97.20;;;;;;5088337;28;19941;-76
2021/11/07 05:41:08;;;;;;;;;;;7.50;97.00;;;;;;5088342;28;20362;-77
2021/11/07 05:43:34;;;;;;;;;;;7.50;97.10;;;;;;5088373;28;19970;-75
2021/11/07 05:45:59;;;;;;;;;;;7.50;97.10;;;;;;5088330;28;19908;-77
2021/11/07 05:48:25;;;;;;;;;;;7.50;97.10;;;;;;5088155;28;19914;-76
2021/11/07 05:50:50;;;;;;;;;;;7.50;97.00;;;;;;5087030;28;19962;-79
2021/11/07 05:53:16;;;;;;;;;;;7.50;97.00;;;;;;5087187;28;19919;-76
2021/11/07 05:55:42;;;;;;;;;;;7.50;97.00;;;;;;5088311;28;20358;-75
2021/11/07 05:58:07;;;;;;;;;;;7.50;97.00;;;;;;5088334;28;20402;-75
2021/11/07 06:00:33;;;;;;;;;;;7.50;97.00;;;;;;5087933;28;20015;-76
2021/11/07 06:03:01;;;;;;;;;;;7.50;97.00;;;;;;5088265;28;20350;-75
2021/11/07 06:05:27;;;;;;;;;;;7.50;97.00;;;;;;5086988;28;19912;-76
2021/11/07 06:07:53;;;;;;;;;;;7.50;97.00;;;;;;5088065;28;20003;-77
2021/11/07 06:10:19;;;;;;;;;;;7.40;97.00;;;;;;5087987;28;20353;-76
2021/11/07 06:12:45;;;;;;;;;;;7.40;97.00;;;;;;5091576;28;19908;-76
2021/11/07 06:15:11;;;;;;;;;;;7.40;97.00;;;;;;5091934;28;20411;-77
2021/11/07 06:17:36;;;;;;;;;;;7.40;97.00;;;;;;5091697;28;20015;-76
2021/11/07 06:20:04;;;;;;;;;;;7.40;97.00;;;;;;5091852;28;19973;-76
2021/11/07 06:22:29;;;;;;;;;;;7.40;97.00;;;;;;5091480;28;19915;-75
2021/11/07 06:24:56;;;;;;;;;;;7.30;97.00;;;;;;5091563;28;20293;-76
2021/11/07 06:27:21;;;;;;;;;;;7.30;97.00;;;;;;5091655;28;19915;-76
2021/11/07 06:29:47;;;;;;;;;;;7.40;97.10;;;;;;5091668;28;20358;-78
2021/11/07 06:32:12;;;;;;;;;;;7.40;97.10;;;;;;5091657;28;19916;-76
2021/11/07 06:34:38;;;;;;;;;;;7.40;97.20;;;;;;5091525;28;19912;-76
2021/11/07 06:37:08;;;;;;;;;;;7.40;97.20;;;;;;5091531;28;20366;-76
2021/11/07 06:39:34;;;;;;;;;;;7.50;97.30;;;;;;5091569;28;19912;-76
2021/11/07 06:42:00;;;;;;;;;;;7.60;97.30;;;;;;5091272;28;19983;-75
2021/11/07 06:44:26;;;;;;;;;;;7.70;97.20;;;;;;5089980;28;19939;-77
2021/11/07 06:46:51;;;;;;;;;;;7.90;97.10;;;;;;5089885;28;19908;-76
2021/11/07 06:49:18;;;;;;;;;;;7.90;97.00;;;;;;5091237;28;19931;-75
2021/11/07 06:51:45;;;;;;;;;;;8.00;97.00;;;;;;5091026;28;20270;-75
2021/11/07 06:54:12;;;;;;;;;;;8.00;96.90;;;;;;5091224;28;19929;-76
2021/11/07 06:56:37;;;;;;;;;;;8.00;96.80;;;;;;5091161;28;19947;-78
2021/11/07 06:59:03;;;;;;;;;;;8.10;96.80;;;;;;5089595;28;19980;-76
2021/11/07 07:01:29;;;;;;;;;;;8.10;96.70;;;;;;5090999;28;19915;-76
2021/11/07 07:03:54;;;;;;;;;;;8.00;96.70;;;;;;5090898;28;20358;-75
2021/11/07 07:06:20;;;;;;;;;;;8.00;96.70;;;;;;5090784;28;20536;-77
2021/11/07 07:08:54;;;;;;;;;;;7.90;96.90;;;;;;5091451;28;19916;-75
2021/11/07 07:11:34;;;;;;;;;;;7.80;96.70;;;;;;5090744;28;19919;-75
2021/11/07 07:14:04;;;;;;;;;;;7.80;96.70;;;;;;5090885;28;19908;-76
2021/11/07 07:19:36;;;;;;;;;;;7.70;96.90;;;;;;5090738;28;20015;-75
2021/11/07 07:30:25;;;;;;;;;;;7.50;97.00;;;;;;5090457;28;20290;-76
2021/11/07 07:35:21;;;;;;;;;;;7.50;97.10;;;;;;5090383;28;19908;-75
2021/11/07 07:37:47;;;;;;;;;;;7.50;97.10;;;;;;5089982;28;19908;-75
2021/11/07 07:40:12;;;;;;;;;;;7.50;97.10;;;;;;5089979;28;20259;-75
2021/11/07 07:42:38;;;;;;;;;;;7.50;97.10;;;;;;5090033;28;19916;-74
2021/11/07 07:45:06;;;;;;;;;;;7.50;97.20;;;;;;5090095;28;20152;-74
2021/11/07 07:47:32;;;;;;;;;;;7.50;97.20;;;;;;5088615;28;19916;-74
2021/11/07 07:49:58;;;;;;;;;;;7.50;97.20;;;;;;5089867;28;19924;-76
2021/11/07 07:52:25;;;;;;;;;;;7.50;97.20;;;;;;5089757;28;19912;-75
2021/11/07 07:54:51;;;;;;;;;;;7.50;97.20;;;;;;5089984;28;20393;-75
2021/11/07 07:57:17;;;;;;;;;;;7.60;97.30;;;;;;5089830;28;19908;-75
2021/11/07 07:59:43;;;;;;;;;;;7.60;97.30;;;;;;5088468;28;19919;-76
2021/11/07 08:02:09;;;;;;;;;;;7.60;97.30;;;;;;5089724;28;20520;-77
2021/11/07 08:04:35;;;;;;;;;;;7.70;97.40;;;;;;5090088;28;19912;-76
2021/11/07 08:07:00;;;;;;;;;;;7.70;97.30;;;;;;5088441;28;19908;-75
2021/11/07 08:09:26;;;;;;;;;;;7.80;97.40;;;;;;5088376;28;19933;-75
2021/11/07 08:11:51;;;;;;;;;;;7.80;97.40;;;;;;5089493;28;20377;-76
2021/11/07 08:14:17;;;;;;;;;;;7.90;97.40;;;;;;5089126;28;20286;-75
2021/11/07 08:16:43;;;;;;;;;;;8.00;97.40;;;;;;5089629;28;19972;-75
2021/11/07 08:19:09;;;;;;;;;;;8.00;97.30;;;;;;5089316;28;19923;-75
2021/11/07 08:21:39;;;;;;;;;;;8.10;97.30;;;;;;5088892;28;19912;-75
2021/11/07 08:24:08;;;;;;;;;;;8.20;97.30;;;;;;5089088;28;19908;-75
2021/11/07 08:26:35;;;;;;;;;;;8.30;97.30;;;;;;5089187;28;19976;-74
2021/11/07 08:29:01;;;;;;;;;;;8.30;97.20;;;;;;5089364;28;19984;-75
2021/11/07 08:31:28;;;;;;;;;;;8.40;97.20;;;;;;5087773;28;20362;-73
2021/11/07 08:33:55;;;;;;;;;;;8.50;97.30;;;;;;5088709;28;19919;-76
2021/11/07 08:36:24;;;;;;;;;;;8.60;97.20;;;;;;5088926;28;19954;-75
2021/11/07 08:38:54;;;;;;;;;;;8.80;97.20;;;;;;5088839;28;20097;-75
2021/11/07 08:41:21;;;;;;;;;;;8.90;97.20;;;;;;5089020;28;20267;-78
2021/11/07 09:10:36;;;;;;;;;;;11.00;97.30;;;;;;5088283;28;19948;-76
2021/11/07 09:13:03;;;;;;;;;;;11.40;96.90;;;;;;5088273;28;19912;-74
2021/11/07 09:15:30;;;;;;;;;;;11.80;96.40;;;;;;5088010;28;19909;-77
2021/11/07 09:17:57;;;;;;;;;;;12.00;95.90;;;;;;5087982;28;19912;-74
2021/11/07 09:20:29;;;;;;;;;;;12.10;95.30;;;;;;5087996;28;19952;-76
2021/11/07 09:23:05;;;;;;;;;;;12.10;95.20;;;;;;5086856;28;20381;-77
2021/11/07 09:25:38;;;;;;;;;;;12.20;95.30;;;;;;5088127;28;19999;-76
2021/11/07 09:28:09;;;;;;;;;;;12.20;94.90;;;;;;5088073;28;19923;-75
2021/11/07 09:33:15;;;;;;;;;;;12.60;94.80;;;;;;5088093;28;20015;-75
2021/11/07 09:38:31;;;;;;;;;;;13.00;94.30;;;;;;5088093;28;20352;-78
2021/11/07 09:41:10;;;;;;;;;;;13.30;94.10;;;;;;5087987;28;19954;-74
2021/11/07 09:43:46;;;;;;;;;;;13.60;94.10;;;;;;5086603;28;20265;-75
2021/11/07 09:48:41;;;;;;;;;;;14.30;93.50;;;;;;5091980;28;19924;-75
2021/11/07 09:51:16;;;;;;;;;;;14.50;93.50;;;;;;5091744;28;19912;-76
2021/11/07 09:53:43;;;;;;;;;;;14.80;93.50;;;;;;5091742;28;19908;-75
2021/11/07 09:56:10;;;;;;;;;;;15.00;93.40;;;;;;5090341;28;19908;-76
2021/11/07 09:58:35;;;;;;;;;;;15.30;93.10;;;;;;5091768;28;19923;-75
2021/11/07 10:01:01;;;;;;;;;;;15.50;93.40;;;;;;5091657;28;19911;-77
2021/11/07 10:03:28;;;;;;;;;;;15.80;92.90;;;;;;5091617;28;19941;-76
2021/11/07 10:05:55;;;;;;;;;;;16.00;92.80;;;;;;5090426;28;19935;-75
2021/11/07 10:08:21;;;;;;;;;;;16.30;93.00;;;;;;5091635;28;19908;-75
2021/11/07 10:10:56;;;;;;;;;;;16.60;92.50;;;;;;5091345;28;19923;-76
2021/11/07 10:13:27;;;;;;;;;;;16.80;92.70;;;;;;5090366;28;19919;-76
2021/11/07 10:16:04;;;;;;;;;;;17.10;92.60;;;;;;5091340;28;19916;-78
2021/11/07 10:18:42;;;;;;;;;;;17.20;91.90;;;;;;5091249;28;19912;-75
2021/11/07 10:21:22;;;;;;;;;;;17.30;91.90;;;;;;5089714;28;19908;-73
2021/11/07 10:24:01;;;;;;;;;;;17.50;90.50;;;;;;5091630;28;19919;-75
2021/11/07 10:26:31;;;;;;;;;;;17.50;90.70;;;;;;5089784;28;19913;-75
2021/11/07 10:29:00;;;;;;;;;;;17.70;90.90;;;;;;5091098;28;20148;-76
2021/11/07 10:31:44;;;;;;;;;;;17.90;90.60;;;;;;5089887;28;20302;-76
2021/11/07 10:42:24;;;;;;;;;;;18.50;89.20;;;;;;5090714;28;19972;-74
2021/11/07 10:53:00;;;;;;;;;;;18.70;87.80;;;;;;5089367;28;20479;-77
2021/11/07 10:55:27;;;;;;;;;;;19.00;86.40;;;;;;5089473;28;20302;-76
2021/11/07 10:57:58;;;;;;;;;;;19.10;86.70;;;;;;5088690;28;19953;-74
2021/11/07 11:00:23;;;;;;;;;;;19.50;85.70;;;;;;5089640;28;19999;-76
2021/11/07 11:02:50;;;;;;;;;;;19.60;86.10;;;;;;5087876;28;20338;-74
2021/11/07 11:05:15;;;;;;;;;;;19.60;83.70;;;;;;5088089;28;20381;-75
2021/11/07 11:08:01;;;;;;;;;;;19.60;82.70;;;;;;5087891;28;19908;-75
2021/11/07 11:10:32;;;;;;;;;;;19.50;83.60;;;;;;5088907;28;19912;-75
2021/11/07 11:13:04;;;;;;;;;;;19.60;84.40;;;;;;5088843;28;19936;-74
2021/11/07 11:15:38;;;;;;;;;;;19.70;83.20;;;;;;5088892;28;20347;-74
2021/11/07 11:18:19;;;;;;;;;;;19.70;83.10;;;;;;5088983;28;19916;-74
2021/11/07 11:21:18;;;;;;;;;;;19.60;83.60;;;;;;5087408;28;19932;-75
2021/11/07 11:26:36;;;;;;;;;;;19.40;82.70;;;;;;5088701;28;20299;-75
2021/11/07 11:31:49;;;;;;;;;;;19.10;81.90;;;;;;5088641;28;19912;-74
2021/11/07 11:34:18;;;;;;;;;;;19.00;81.20;;;;;;5089137;28;19973;-75
2021/11/07 11:36:52;;;;;;;;;;;18.90;81.60;;;;;;5087064;28;19918;-76
2021/11/07 11:39:27;;;;;;;;;;;18.90;82.00;;;;;;5087408;28;19966;-74
2021/11/07 11:42:10;;;;;;;;;;;18.90;81.70;;;;;;5088663;28;19914;-75
2021/11/07 11:44:36;;;;;;;;;;;18.80;81.60;;;;;;5088594;28;19961;-76
2021/11/07 11:47:30;;;;;;;;;;;18.60;80.70;;;;;;5087225;28;19912;-75
2021/11/07 11:58:11;;;;;;;;;;;18.10;81.20;;;;;;5089485;28;20019;-76
2021/11/07 12:01:04;;;;;;;;;;;18.00;80.80;;;;;;5088417;28;19918;-76
2021/11/07 12:06:21;;;;;;;;;;;18.10;81.60;;;;;;5089801;28;19915;-75
2021/11/07 12:09:02;;;;;;;;;;;18.20;82.00;;;;;;5086898;28;20413;-76
2021/11/07 12:11:35;;;;;;;;;;;18.30;81.90;;;;;;5087951;28;19919;-74
2021/11/07 12:14:10;;;;;;;;;;;18.50;81.40;;;;;;5088440;28;19912;-74
2021/11/07 12:16:55;;;;;;;;;;;18.50;81.10;;;;;;5088843;28;19908;-76
2021/11/07 12:19:29;;;;;;;;;;;18.60;81.20;;;;;;5089167;28;19919;-76
2021/11/07 12:22:00;;;;;;;;;;;18.60;81.10;;;;;;5089205;28;19908;-77
2021/11/07 12:24:50;;;;;;;;;;;18.60;81.50;;;;;;5087097;28;20026;-76
2021/11/07 12:27:17;;;;;;;;;;;18.50;79.80;;;;;;5082687;28;19908;-76
2021/11/07 12:29:43;;;;;;;;;;;18.40;80.40;;;;;;5088380;28;19995;-78
2021/11/07 12:32:12;;;;;;;;;;;18.50;81.10;;;;;;5088270;28;19915;-76
2021/11/07 12:34:57;;;;;;;;;;;18.30;79.90;;;;;;5088494;28;20170;-75
2021/11/07 12:40:34;;;;;;;;;;;17.40;77.40;;;;;;5088973;28;19927;-75
2021/11/07 12:43:00;;;;;;;;;;;17.00;77.80;;;;;;5088600;28;19953;-75
2021/11/07 12:45:41;;;;;;;;;;;16.70;77.80;;;;;;5088722;28;20386;-75
2021/11/07 12:48:08;;;;;;;;;;;16.40;77.60;;;;;;5088276;28;19951;-75
2021/11/07 12:50:50;;;;;;;;;;;16.30;77.70;;;;;;5087889;28;19970;-70
2021/11/07 12:53:16;;;;;;;;;;;16.20;78.40;;;;;;5087096;28;20362;-75
2021/11/07 12:55:41;;;;;;;;;;;16.20;78.90;;;;;;5088605;28;19914;-75
2021/11/07 12:58:07;;;;;;;;;;;16.20;79.10;;;;;;5088278;28;20015;-77
2021/11/07 13:00:33;;;;;;;;;;;16.20;79.00;;;;;;5087934;28;19915;-74
2021/11/07 13:03:09;;;;;;;;;;;16.10;78.30;;;;;;5088190;28;19908;-76
2021/11/07 13:05:39;;;;;;;;;;;16.10;78.80;;;;;;5087596;28;19956;-76
2021/11/07 13:08:19;;;;;;;;;;;16.10;78.50;;;;;;5087016;28;19912;-75
2021/11/07 13:10:51;;;;;;;;;;;16.00;78.00;;;;;;5087929;28;19923;-75
2021/11/07 13:13:59;;;;;;;;;;;15.90;78.10;;;;;;5087780;28;19908;-73
2021/11/07 13:22:15;;;;;;;;;;;15.70;78.20;;;;;;5085537;28;20012;-75
2021/11/07 13:27:13;;;;;;;;;;;15.60;78.70;;;;;;5087751;28;19991;-75
2021/11/07 13:34:48;;;;;;;;;;;15.50;78.90;;;;;;5087956;28;19911;-76
2021/11/07 13:37:25;;;;;;;;;;;15.60;79.30;;;;;;5088735;28;20441;-75
2021/11/07 13:39:51;;;;;;;;;;;15.60;79.20;;;;;;5088422;28;19952;-76
2021/11/07 13:42:17;;;;;;;;;;;15.60;78.80;;;;;;5088261;28;20406;-75
2021/11/07 13:44:49;;;;;;;;;;;15.50;78.90;;;;;;5087955;28;19956;-78
2021/11/07 13:47:15;;;;;;;;;;;15.40;78.70;;;;;;5088251;28;19935;-74
2021/11/07 13:49:48;;;;;;;;;;;15.30;78.60;;;;;;5088130;28;19920;-76
2021/11/07 13:52:14;;;;;;;;;;;15.30;78.50;;;;;;5088022;28;20375;-77
2021/11/07 13:54:39;;;;;;;;;;;15.20;78.60;;;;;;5086642;28;19956;-76
2021/11/07 13:57:06;;;;;;;;;;;15.10;78.80;;;;;;5088562;28;20380;-74
2021/11/07 13:59:33;;;;;;;;;;;15.00;78.90;;;;;;5089104;28;19916;-75
2021/11/07 14:01:59;;;;;;;;;;;14.90;79.00;;;;;;5089099;28;19980;-76
2021/11/07 14:04:37;;;;;;;;;;;14.70;78.80;;;;;;5088197;28;19909;-74
2021/11/07 14:07:11;;;;;;;;;;;14.60;78.90;;;;;;5089196;28;19912;-77
2021/11/07 14:09:36;;;;;;;;;;;14.40;79.10;;;;;;5086629;28;19908;-75
2021/11/07 14:12:02;;;;;;;;;;;14.30;79.30;;;;;;5086182;28;19926;-75
2021/11/07 14:14:28;;;;;;;;;;;14.20;79.30;;;;;;5087487;28;19908;-75
2021/11/07 14:16:59;;;;;;;;;;;14.00;79.40;;;;;;5068974;28;19942;-75
2021/11/07 14:19:25;;;;;;;;;;;14.00;79.60;;;;;;5087131;28;20019;-75
2021/11/07 14:21:51;;;;;;;;;;;13.90;79.80;;;;;;5069332;28;19947;-76
2021/11/07 14:24:25;;;;;;;;;;;13.90;79.90;;;;;;5086370;28;20371;-76
2021/11/07 14:29:36;;;;;;;;;;;13.80;80.00;;;;;;5087141;28;20377;-75
2021/11/07 14:35:01;;;;;;;;;;;13.70;80.00;;;;;;5090694;28;20014;-76
2021/11/07 14:40:15;;;;;;;;;;;13.70;80.10;;;;;;5090981;28;19912;-76
2021/11/07 14:51:00;;;;;;;;;;;13.60;80.30;;;;;;5090629;28;19974;-76
2021/11/07 14:53:30;;;;;;;;;;;13.60;80.20;;;;;;5090717;28;19908;-75
2021/11/07 14:56:14;;;;;;;;;;;13.60;80.10;;;;;;5090704;28;20004;-74
2021/11/07 14:58:57;;;;;;;;;;;13.50;80.10;;;;;;5089953;28;19912;-75
2021/11/07 15:01:44;;;;;;;;;;;13.40;80.20;;;;;;5089910;28;19947;-75
2021/11/07 15:04:23;;;;;;;;;;;13.40;80.40;;;;;;5088860;28;19915;-75
2021/11/07 15:07:12;;;;;;;;;;;13.40;80.70;;;;;;5090662;28;19917;-74
2021/11/07 15:09:58;;;;;;;;;;;13.40;80.80;;;;;;5089194;28;19943;-76
2021/11/07 15:15:25;;;;;;;;;;;13.40;80.60;;;;;;5090253;28;19908;-77
2021/11/07 15:18:01;;;;;;;;;;;13.30;80.50;;;;;;5090138;28;20356;-75
2021/11/07 15:20:35;;;;;;;;;;;13.20;80.60;;;;;;5090017;28;19908;-78
2021/11/07 15:23:02;;;;;;;;;;;13.20;80.70;;;;;;5090220;28;20376;-76
2021/11/07 15:25:35;;;;;;;;;;;13.10;80.70;;;;;;5090208;28;19943;-76
2021/11/07 15:28:05;;;;;;;;;;;13.00;80.70;;;;;;5090050;28;19956;-75
2021/11/07 15:30:38;;;;;;;;;;;13.00;80.80;;;;;;5088411;28;19920;-76
2021/11/07 15:33:08;;;;;;;;;;;12.90;80.80;;;;;;5089500;28;19985;-75
2021/11/07 15:35:33;;;;;;;;;;;12.80;81.40;;;;;;5089908;28;20072;-75
2021/11/07 15:38:09;;;;;;;;;;;12.80;81.10;;;;;;5089875;28;19948;-76
2021/11/07 15:40:35;;;;;;;;;;;12.70;81.10;;;;;;5088488;28;19919;-76
2021/11/07 15:43:10;;;;;;;;;;;12.70;81.20;;;;;;5089214;28;20006;-75
2021/11/07 15:45:51;;;;;;;;;;;12.70;81.30;;;;;;5089460;28;19908;-75
2021/11/07 15:48:19;;;;;;;;;;;12.60;81.30;;;;;;5089149;28;19913;-75
2021/11/07 15:50:54;;;;;;;;;;;12.60;81.30;;;;;;5089667;28;19924;-77
2021/11/07 15:56:13;;;;;;;;;;;12.50;81.50;;;;;;5088221;28;19918;-75
2021/11/07 15:58:52;;;;;;;;;;;12.50;81.70;;;;;;5089560;28;20027;-75
2021/11/07 16:01:30;;;;;;;;;;;12.60;81.80;;;;;;5088474;28;19985;-76
2021/11/07 16:04:29;;;;;;;;;;;12.60;81.70;;;;;;5087594;28;20329;-74
2021/11/07 16:07:14;;;;;;;;;;;12.70;81.90;;;;;;5088947;28;19923;-76
2021/11/07 16:09:47;;;;;;;;;;;12.80;82.00;;;;;;5087663;28;19919;-76
2021/11/07 16:12:30;;;;;;;;;;;12.90;81.90;;;;;;5087616;28;19919;-76
2021/11/07 16:15:11;;;;;;;;;;;12.90;81.70;;;;;;5089074;28;19994;-75
2021/11/07 16:17:40;;;;;;;;;;;12.90;81.70;;;;;;5087624;28;20018;-75
2021/11/07 16:20:18;;;;;;;;;;;12.80;81.60;;;;;;5088787;28;19973;-76
2021/11/07 16:22:46;;;;;;;;;;;12.70;81.60;;;;;;5088729;28;20261;-75
2021/11/07 16:25:13;;;;;;;;;;;12.60;81.60;;;;;;5086898;28;19912;-75
2021/11/07 16:27:40;;;;;;;;;;;12.50;81.60;;;;;;5086952;28;19916;-76
2021/11/07 16:30:06;;;;;;;;;;;12.40;81.60;;;;;;5087097;28;20274;-75
2021/11/07 16:32:46;;;;;;;;;;;12.30;81.70;;;;;;5088806;28;19912;-75
2021/11/07 16:35:18;;;;;;;;;;;12.20;81.80;;;;;;5088856;28;20003;-75
2021/11/07 16:37:53;;;;;;;;;;;12.00;81.80;;;;;;5087654;28;19922;-77
2021/11/07 16:40:46;;;;;;;;;;;11.90;81.90;;;;;;5089321;28;19925;-75
2021/11/07 16:43:06;;;;;;;;;;;11.80;81.90;;;;;;5088500;28;19908;-76
2021/11/07 16:45:31;;;;;;;;;;;11.70;82.00;;;;;;5088696;28;19912;-76
2021/11/07 16:48:00;;;;;;;;;;;11.60;82.10;;;;;;5088194;28;20000;-75
2021/11/07 16:50:39;;;;;;;;;;;11.50;82.10;;;;;;5088178;28;19924;-74
2021/11/07 16:53:07;;;;;;;;;;;11.40;82.20;;;;;;5088472;28;19908;-75
2021/11/07 16:55:39;;;;;;;;;;;11.30;82.30;;;;;;5087734;28;19951;-76
2021/11/07 16:58:07;;;;;;;;;;;11.30;82.30;;;;;;5086678;28;19908;-77
2021/11/07 17:00:37;;;;;;;;;;;11.20;82.40;;;;;;5069615;28;19984;-74
2021/11/07 17:03:12;;;;;;;;;;;11.10;82.50;;;;;;5087577;28;19908;-76
2021/11/07 17:05:49;;;;;;;;;;;11.00;82.50;;;;;;5086588;28;20010;-76
2021/11/07 17:08:20;;;;;;;;;;;11.00;82.60;;;;;;5087988;28;20389;-77
2021/11/07 17:10:46;;;;;;;;;;;10.90;83.00;;;;;;5087866;28;19916;-75